sensor_id;sensor_type;location;lat;lon;timestamp;P1;durP1;ratioP1;P2;durP2;ratioP2
20846;SDS011;10584;50.854;12.902;2023-02-28T00:00:03;13.00;;;5.47;;
20846;SDS011;10584;50.854;12.902;2023-02-28T00:05:31;14.60;;;6.07;;
20846;SDS011;10584;50.854;12.902;2023-02-28T00:11:16;12.73;;;6.03;;
20846;SDS011;10584;50.854;12.902;2023-02-28T00:16:47;16.33;;;6.07;;
20846;SDS011;10584;50.854;12.902;2023-02-28T00:22:33;12.93;;;6.20;;
20846;SDS011;10584;50.854;12.902;2023-02-28T00:28:06;12.70;;;5.77;;
20846;SDS011;10584;50.854;12.902;2023-02-28T00:33:43;13.53;;;5.77;;
20846;SDS011;10584;50.854;12.902;2023-02-28T00:39:14;11.13;;;5.57;;
20846;SDS011;10584;50.854;12.902;2023-02-28T00:44:41;10.03;;;5.20;;
20846;SDS011;10584;50.854;12.902;2023-02-28T00:50:04;14.93;;;5.67;;
20846;SDS011;10584;50.854;12.902;2023-02-28T00:55:26;12.57;;;5.63;;
20846;SDS011;10584;50.854;12.902;2023-02-28T01:00:47;13.40;;;5.10;;
20846;SDS011;10584;50.854;12.902;2023-02-28T01:06:10;14.00;;;5.83;;
20846;SDS011;10584;50.854;12.902;2023-02-28T01:12:08;14.50;;;4.90;;
20846;SDS011;10584;50.854;12.902;2023-02-28T01:17:46;15.40;;;5.37;;
20846;SDS011;10584;50.854;12.902;2023-02-28T01:23:26;13.43;;;5.67;;
20846;SDS011;10584;50.854;12.902;2023-02-28T01:28:51;18.23;;;5.57;;
20846;SDS011;10584;50.854;12.902;2023-02-28T01:34:22;11.73;;;5.43;;
20846;SDS011;10584;50.854;12.902;2023-02-28T01:39:44;12.33;;;5.27;;
20846;SDS011;10584;50.854;12.902;2023-02-28T01:45:22;12.20;;;5.10;;
20846;SDS011;10584;50.854;12.902;2023-02-28T01:50:52;13.30;;;5.20;;
20846;SDS011;10584;50.854;12.902;2023-02-28T01:56:51;16.07;;;5.93;;
20846;SDS011;10584;50.854;12.902;2023-02-28T02:02:48;12.73;;;5.40;;
20846;SDS011;10584;50.854;12.902;2023-02-28T02:08:37;12.33;;;5.73;;
20846;SDS011;10584;50.854;12.902;2023-02-28T02:14:10;11.80;;;5.23;;
20846;SDS011;10584;50.854;12.902;2023-02-28T02:20:14;12.97;;;5.20;;
20846;SDS011;10584;50.854;12.902;2023-02-28T02:25:45;14.27;;;5.57;;
20846;SDS011;10584;50.854;12.902;2023-02-28T02:31:43;12.07;;;5.67;;
20846;SDS011;10584;50.854;12.902;2023-02-28T02:37:38;15.70;;;6.20;;
20846;SDS011;10584;50.854;12.902;2023-02-28T02:43:46;13.90;;;5.40;;
20846;SDS011;10584;50.854;12.902;2023-02-28T02:49:39;14.80;;;5.40;;
20846;SDS011;10584;50.854;12.902;2023-02-28T02:55:03;14.90;;;5.67;;
20846;SDS011;10584;50.854;12.902;2023-02-28T03:00:29;12.53;;;6.27;;
20846;SDS011;10584;50.854;12.902;2023-02-28T03:05:59;10.27;;;5.23;;
20846;SDS011;10584;50.854;12.902;2023-02-28T03:11:46;15.20;;;6.00;;
20846;SDS011;10584;50.854;12.902;2023-02-28T03:23:29;15.93;;;5.63;;
20846;SDS011;10584;50.854;12.902;2023-02-28T03:35:14;15.10;;;6.20;;
20846;SDS011;10584;50.854;12.902;2023-02-28T03:40:45;14.83;;;6.10;;
20846;SDS011;10584;50.854;12.902;2023-02-28T03:46:19;13.10;;;5.60;;
20846;SDS011;10584;50.854;12.902;2023-02-28T03:51:56;15.07;;;5.57;;
20846;SDS011;10584;50.854;12.902;2023-02-28T03:57:50;14.43;;;5.87;;
20846;SDS011;10584;50.854;12.902;2023-02-28T04:04:03;13.43;;;6.10;;
20846;SDS011;10584;50.854;12.902;2023-02-28T04:09:28;14.27;;;6.00;;
20846;SDS011;10584;50.854;12.902;2023-02-28T04:14:49;16.97;;;6.57;;
20846;SDS011;10584;50.854;12.902;2023-02-28T04:20:11;16.27;;;6.60;;
20846;SDS011;10584;50.854;12.902;2023-02-28T04:25:33;17.93;;;6.90;;
20846;SDS011;10584;50.854;12.902;2023-02-28T04:31:03;16.60;;;6.77;;
20846;SDS011;10584;50.854;12.902;2023-02-28T04:42:47;18.57;;;9.03;;
20846;SDS011;10584;50.854;12.902;2023-02-28T04:48:29;20.90;;;9.17;;
20846;SDS011;10584;50.854;12.902;2023-02-28T04:53:56;21.13;;;10.30;;
20846;SDS011;10584;50.854;12.902;2023-02-28T04:59:23;22.47;;;10.27;;
20846;SDS011;10584;50.854;12.902;2023-02-28T05:04:49;26.97;;;10.57;;
20846;SDS011;10584;50.854;12.902;2023-02-28T05:10:31;24.43;;;10.33;;
20846;SDS011;10584;50.854;12.902;2023-02-28T05:16:11;27.77;;;11.47;;
20846;SDS011;10584;50.854;12.902;2023-02-28T05:21:56;28.83;;;10.87;;
20846;SDS011;10584;50.854;12.902;2023-02-28T05:27:35;25.03;;;11.13;;
20846;SDS011;10584;50.854;12.902;2023-02-28T05:33:17;28.37;;;10.83;;
20846;SDS011;10584;50.854;12.902;2023-02-28T05:38:56;22.17;;;9.70;;
20846;SDS011;10584;50.854;12.902;2023-02-28T05:44:24;29.93;;;10.73;;
20846;SDS011;10584;50.854;12.902;2023-02-28T05:49:45;24.07;;;10.60;;
20846;SDS011;10584;50.854;12.902;2023-02-28T05:55:07;26.20;;;10.87;;
20846;SDS011;10584;50.854;12.902;2023-02-28T06:00:29;25.73;;;10.43;;
20846;SDS011;10584;50.854;12.902;2023-02-28T06:05:58;26.83;;;10.53;;
20846;SDS011;10584;50.854;12.902;2023-02-28T06:11:41;23.50;;;9.97;;
20846;SDS011;10584;50.854;12.902;2023-02-28T06:17:23;23.20;;;10.67;;
20846;SDS011;10584;50.854;12.902;2023-02-28T06:23:02;25.53;;;10.03;;
20846;SDS011;10584;50.854;12.902;2023-02-28T06:28:44;21.43;;;10.20;;
20846;SDS011;10584;50.854;12.902;2023-02-28T06:34:16;22.80;;;10.10;;
20846;SDS011;10584;50.854;12.902;2023-02-28T06:39:40;24.13;;;10.03;;
20846;SDS011;10584;50.854;12.902;2023-02-28T06:45:01;24.17;;;10.07;;
20846;SDS011;10584;50.854;12.902;2023-02-28T06:50:29;29.47;;;10.77;;
20846;SDS011;10584;50.854;12.902;2023-02-28T06:55:53;27.00;;;10.57;;
20846;SDS011;10584;50.854;12.902;2023-02-28T07:01:44;27.47;;;10.27;;
20846;SDS011;10584;50.854;12.902;2023-02-28T07:07:25;26.83;;;10.97;;
20846;SDS011;10584;50.854;12.902;2023-02-28T07:12:49;30.70;;;11.47;;
20846;SDS011;10584;50.854;12.902;2023-02-28T07:18:25;31.60;;;11.77;;
20846;SDS011;10584;50.854;12.902;2023-02-28T07:24:06;34.33;;;13.43;;
20846;SDS011;10584;50.854;12.902;2023-02-28T07:29:34;35.37;;;12.97;;
20846;SDS011;10584;50.854;12.902;2023-02-28T07:34:56;33.30;;;13.80;;
20846;SDS011;10584;50.854;12.902;2023-02-28T07:40:18;38.70;;;14.03;;
20846;SDS011;10584;50.854;12.902;2023-02-28T07:45:39;33.07;;;14.23;;
20846;SDS011;10584;50.854;12.902;2023-02-28T07:51:06;41.20;;;14.30;;
20846;SDS011;10584;50.854;12.902;2023-02-28T07:56:53;36.93;;;14.13;;
20846;SDS011;10584;50.854;12.902;2023-02-28T08:02:49;35.50;;;14.20;;
20846;SDS011;10584;50.854;12.902;2023-02-28T08:08:35;12.17;;;5.53;;
20846;SDS011;10584;50.854;12.902;2023-02-28T08:14:18;29.47;;;12.30;;
20846;SDS011;10584;50.854;12.902;2023-02-28T08:19:39;31.07;;;11.93;;
20846;SDS011;10584;50.854;12.902;2023-02-28T08:31:00;29.73;;;11.37;;
20846;SDS011;10584;50.854;12.902;2023-02-28T08:36:31;29.27;;;11.67;;
20846;SDS011;10584;50.854;12.902;2023-02-28T08:42:16;29.33;;;11.40;;
20846;SDS011;10584;50.854;12.902;2023-02-28T08:47:45;23.13;;;10.67;;
20846;SDS011;10584;50.854;12.902;2023-02-28T08:53:25;28.20;;;11.27;;
20846;SDS011;10584;50.854;12.902;2023-02-28T08:59:04;25.30;;;10.27;;
20846;SDS011;10584;50.854;12.902;2023-02-28T09:04:48;20.97;;;9.17;;
20846;SDS011;10584;50.854;12.902;2023-02-28T09:10:21;20.03;;;8.77;;
20846;SDS011;10584;50.854;12.902;2023-02-28T09:15:42;22.63;;;9.47;;
20846;SDS011;10584;50.854;12.902;2023-02-28T09:21:12;19.43;;;8.33;;
20846;SDS011;10584;50.854;12.902;2023-02-28T09:26:51;18.63;;;7.97;;
20846;SDS011;10584;50.854;12.902;2023-02-28T09:32:37;22.20;;;8.80;;
20846;SDS011;10584;50.854;12.902;2023-02-28T09:38:21;15.73;;;7.90;;
20846;SDS011;10584;50.854;12.902;2023-02-28T09:43:54;16.10;;;7.53;;
20846;SDS011;10584;50.854;12.902;2023-02-28T09:50:03;18.00;;;8.23;;
20846;SDS011;10584;50.854;12.902;2023-02-28T10:01:09;19.37;;;7.50;;
20846;SDS011;10584;50.854;12.902;2023-02-28T10:13:36;15.53;;;7.57;;
20846;SDS011;10584;50.854;12.902;2023-02-28T10:19:20;10.20;;;4.17;;
20846;SDS011;10584;50.854;12.902;2023-02-28T10:24:59;19.70;;;7.37;;
20846;SDS011;10584;50.854;12.902;2023-02-28T10:30:29;21.43;;;7.30;;
20846;SDS011;10584;50.854;12.902;2023-02-28T10:35:56;18.77;;;6.70;;
20846;SDS011;10584;50.854;12.902;2023-02-28T10:41:48;18.57;;;8.20;;
20846;SDS011;10584;50.854;12.902;2023-02-28T10:47:35;19.63;;;7.27;;
20846;SDS011;10584;50.854;12.902;2023-02-28T10:59:28;17.40;;;7.23;;
20846;SDS011;10584;50.854;12.902;2023-02-28T11:04:53;15.97;;;7.77;;
20846;SDS011;10584;50.854;12.902;2023-02-28T11:10:33;17.43;;;7.90;;
20846;SDS011;10584;50.854;12.902;2023-02-28T11:16:14;20.97;;;7.00;;
20846;SDS011;10584;50.854;12.902;2023-02-28T11:21:47;19.90;;;7.13;;
20846;SDS011;10584;50.854;12.902;2023-02-28T11:39:11;18.47;;;7.67;;
20846;SDS011;10584;50.854;12.902;2023-02-28T11:50:22;15.23;;;6.50;;
20846;SDS011;10584;50.854;12.902;2023-02-28T11:56:09;15.17;;;7.80;;
20846;SDS011;10584;50.854;12.902;2023-02-28T12:13:48;18.87;;;8.33;;
20846;SDS011;10584;50.854;12.902;2023-02-28T12:19:35;15.87;;;7.83;;
20846;SDS011;10584;50.854;12.902;2023-02-28T12:30:49;16.77;;;8.23;;
20846;SDS011;10584;50.854;12.902;2023-02-28T12:36:47;17.57;;;7.83;;
20846;SDS011;10584;50.854;12.902;2023-02-28T12:42:41;19.77;;;8.50;;
20846;SDS011;10584;50.854;12.902;2023-02-28T12:48:26;19.03;;;8.77;;
20846;SDS011;10584;50.854;12.902;2023-02-28T12:54:28;19.80;;;9.03;;
20846;SDS011;10584;50.854;12.902;2023-02-28T13:00:25;25.63;;;8.63;;
20846;SDS011;10584;50.854;12.902;2023-02-28T13:12:16;20.63;;;8.90;;
20846;SDS011;10584;50.854;12.902;2023-02-28T13:17:54;19.30;;;8.60;;
20846;SDS011;10584;50.854;12.902;2023-02-28T13:23:40;20.40;;;9.33;;
20846;SDS011;10584;50.854;12.902;2023-02-28T13:29:27;19.73;;;9.17;;
20846;SDS011;10584;50.854;12.902;2023-02-28T13:46:24;23.47;;;9.87;;
20846;SDS011;10584;50.854;12.902;2023-02-28T13:52:03;21.60;;;10.27;;
20846;SDS011;10584;50.854;12.902;2023-02-28T13:57:52;23.93;;;11.00;;
20846;SDS011;10584;50.854;12.902;2023-02-28T14:03:33;22.50;;;10.00;;
20846;SDS011;10584;50.854;12.902;2023-02-28T14:09:51;24.10;;;10.27;;
20846;SDS011;10584;50.854;12.902;2023-02-28T14:39:25;22.10;;;9.77;;
20846;SDS011;10584;50.854;12.902;2023-02-28T14:44:53;23.63;;;10.17;;
20846;SDS011;10584;50.854;12.902;2023-02-28T14:50:18;26.10;;;11.23;;
20846;SDS011;10584;50.854;12.902;2023-02-28T14:55:43;28.00;;;11.40;;
20846;SDS011;10584;50.854;12.902;2023-02-28T15:01:18;19.53;;;9.10;;
20846;SDS011;10584;50.854;12.902;2023-02-28T15:07:15;21.40;;;10.70;;
20846;SDS011;10584;50.854;12.902;2023-02-28T15:12:41;24.60;;;10.77;;
20846;SDS011;10584;50.854;12.902;2023-02-28T15:18:33;22.93;;;10.20;;
20846;SDS011;10584;50.854;12.902;2023-02-28T15:24:19;20.33;;;9.60;;
20846;SDS011;10584;50.854;12.902;2023-02-28T15:29:56;25.07;;;11.10;;
20846;SDS011;10584;50.854;12.902;2023-02-28T15:40:45;19.73;;;8.70;;
20846;SDS011;10584;50.854;12.902;2023-02-28T15:46:23;25.40;;;10.80;;
20846;SDS011;10584;50.854;12.902;2023-02-28T15:51:59;28.70;;;12.07;;
20846;SDS011;10584;50.854;12.902;2023-02-28T15:57:43;26.10;;;11.87;;
20846;SDS011;10584;50.854;12.902;2023-02-28T16:03:32;28.23;;;11.73;;
20846;SDS011;10584;50.854;12.902;2023-02-28T16:09:24;25.13;;;11.77;;
20846;SDS011;10584;50.854;12.902;2023-02-28T16:14:48;29.67;;;12.10;;
20846;SDS011;10584;50.854;12.902;2023-02-28T16:20:13;26.40;;;12.13;;
20846;SDS011;10584;50.854;12.902;2023-02-28T16:25:41;27.00;;;11.53;;
20846;SDS011;10584;50.854;12.902;2023-02-28T16:31:15;29.63;;;13.70;;
20846;SDS011;10584;50.854;12.902;2023-02-28T16:36:53;29.60;;;11.60;;
20846;SDS011;10584;50.854;12.902;2023-02-28T16:42:31;26.07;;;11.97;;
20846;SDS011;10584;50.854;12.902;2023-02-28T16:48:08;29.13;;;11.80;;
20846;SDS011;10584;50.854;12.902;2023-02-28T16:53:53;28.80;;;12.10;;
20846;SDS011;10584;50.854;12.902;2023-02-28T16:59:22;46.03;;;17.70;;
20846;SDS011;10584;50.854;12.902;2023-02-28T17:04:50;35.37;;;14.43;;
20846;SDS011;10584;50.854;12.902;2023-02-28T17:10:18;47.80;;;19.20;;
20846;SDS011;10584;50.854;12.902;2023-02-28T17:15:52;41.47;;;17.83;;
20846;SDS011;10584;50.854;12.902;2023-02-28T17:21:45;39.90;;;17.20;;
20846;SDS011;10584;50.854;12.902;2023-02-28T17:27:28;43.73;;;18.37;;
20846;SDS011;10584;50.854;12.902;2023-02-28T17:33:07;42.17;;;16.57;;
20846;SDS011;10584;50.854;12.902;2023-02-28T17:38:35;40.27;;;15.53;;
20846;SDS011;10584;50.854;12.902;2023-02-28T17:44:10;33.20;;;14.47;;
20846;SDS011;10584;50.854;12.902;2023-02-28T17:49:34;36.27;;;15.60;;
20846;SDS011;10584;50.854;12.902;2023-02-28T17:54:57;39.03;;;14.77;;
20846;SDS011;10584;50.854;12.902;2023-02-28T18:00:18;29.47;;;13.87;;
20846;SDS011;10584;50.854;12.902;2023-02-28T18:05:44;34.77;;;15.30;;
20846;SDS011;10584;50.854;12.902;2023-02-28T18:11:27;34.67;;;13.53;;
20846;SDS011;10584;50.854;12.902;2023-02-28T18:17:12;33.37;;;14.40;;
20846;SDS011;10584;50.854;12.902;2023-02-28T18:22:44;34.70;;;14.60;;
20846;SDS011;10584;50.854;12.902;2023-02-28T18:28:34;38.10;;;15.73;;
20846;SDS011;10584;50.854;12.902;2023-02-28T18:34:10;40.10;;;15.63;;
20846;SDS011;10584;50.854;12.902;2023-02-28T18:39:34;41.40;;;17.10;;
20846;SDS011;10584;50.854;12.902;2023-02-28T18:44:56;42.30;;;15.97;;
20846;SDS011;10584;50.854;12.902;2023-02-28T18:50:18;42.70;;;16.47;;
20846;SDS011;10584;50.854;12.902;2023-02-28T18:55:39;41.17;;;17.57;;
20846;SDS011;10584;50.854;12.902;2023-02-28T19:01:02;39.63;;;15.33;;
20846;SDS011;10584;50.854;12.902;2023-02-28T19:06:29;42.90;;;17.03;;
20846;SDS011;10584;50.854;12.902;2023-02-28T19:12:12;36.80;;;15.00;;
20846;SDS011;10584;50.854;12.902;2023-02-28T19:17:54;49.50;;;17.40;;
20846;SDS011;10584;50.854;12.902;2023-02-28T19:23:30;35.43;;;15.17;;
20846;SDS011;10584;50.854;12.902;2023-02-28T19:29:14;37.60;;;14.60;;
20846;SDS011;10584;50.854;12.902;2023-02-28T19:34:36;40.73;;;15.93;;
20846;SDS011;10584;50.854;12.902;2023-02-28T19:40:03;39.57;;;15.87;;
20846;SDS011;10584;50.854;12.902;2023-02-28T19:45:28;42.07;;;16.57;;
20846;SDS011;10584;50.854;12.902;2023-02-28T19:50:57;39.30;;;14.47;;
20846;SDS011;10584;50.854;12.902;2023-02-28T19:56:55;34.57;;;13.47;;
20846;SDS011;10584;50.854;12.902;2023-02-28T20:02:35;32.83;;;13.50;;
20846;SDS011;10584;50.854;12.902;2023-02-28T20:08:28;41.60;;;13.97;;
20846;SDS011;10584;50.854;12.902;2023-02-28T20:14:01;36.07;;;14.97;;
20846;SDS011;10584;50.854;12.902;2023-02-28T20:19:25;40.67;;;14.97;;
20846;SDS011;10584;50.854;12.902;2023-02-28T20:24:46;37.80;;;14.70;;
20846;SDS011;10584;50.854;12.902;2023-02-28T20:30:08;36.73;;;14.47;;
20846;SDS011;10584;50.854;12.902;2023-02-28T20:35:30;35.70;;;14.73;;
20846;SDS011;10584;50.854;12.902;2023-02-28T20:40:54;37.37;;;14.77;;
20846;SDS011;10584;50.854;12.902;2023-02-28T20:46:52;43.23;;;14.93;;
20846;SDS011;10584;50.854;12.902;2023-02-28T20:52:30;42.07;;;14.37;;
20846;SDS011;10584;50.854;12.902;2023-02-28T20:58:12;38.20;;;14.80;;
20846;SDS011;10584;50.854;12.902;2023-02-28T21:03:52;41.47;;;14.80;;
20846;SDS011;10584;50.854;12.902;2023-02-28T21:09:34;38.77;;;15.17;;
20846;SDS011;10584;50.854;12.902;2023-02-28T21:14:55;36.57;;;14.27;;
20846;SDS011;10584;50.854;12.902;2023-02-28T21:20:17;37.43;;;13.63;;
20846;SDS011;10584;50.854;12.902;2023-02-28T21:25:41;42.20;;;15.23;;
20846;SDS011;10584;50.854;12.902;2023-02-28T21:31:14;47.07;;;14.63;;
20846;SDS011;10584;50.854;12.902;2023-02-28T21:36:57;40.33;;;14.93;;
20846;SDS011;10584;50.854;12.902;2023-02-28T21:42:46;44.80;;;15.40;;
20846;SDS011;10584;50.854;12.902;2023-02-28T21:48:09;40.77;;;15.67;;
20846;SDS011;10584;50.854;12.902;2023-02-28T21:53:44;43.83;;;15.27;;
20846;SDS011;10584;50.854;12.902;2023-02-28T21:59:14;38.73;;;14.50;;
20846;SDS011;10584;50.854;12.902;2023-02-28T22:04:36;52.20;;;16.27;;
20846;SDS011;10584;50.854;12.902;2023-02-28T22:09:58;41.53;;;15.93;;
20846;SDS011;10584;50.854;12.902;2023-02-28T22:15:19;44.07;;;15.23;;
20846;SDS011;10584;50.854;12.902;2023-02-28T22:20:41;41.13;;;16.07;;
20846;SDS011;10584;50.854;12.902;2023-02-28T22:26:10;47.27;;;16.27;;
20846;SDS011;10584;50.854;12.902;2023-02-28T22:31:47;44.70;;;15.83;;
20846;SDS011;10584;50.854;12.902;2023-02-28T22:37:34;47.53;;;17.40;;
20846;SDS011;10584;50.854;12.902;2023-02-28T22:42:57;47.80;;;17.00;;
20846;SDS011;10584;50.854;12.902;2023-02-28T22:48:19;51.53;;;18.43;;
20846;SDS011;10584;50.854;12.902;2023-02-28T22:53:41;45.83;;;17.63;;
20846;SDS011;10584;50.854;12.902;2023-02-28T22:59:04;47.40;;;16.27;;
20846;SDS011;10584;50.854;12.902;2023-02-28T23:04:26;50.23;;;18.03;;
20846;SDS011;10584;50.854;12.902;2023-02-28T23:09:48;41.30;;;16.43;;
20846;SDS011;10584;50.854;12.902;2023-02-28T23:15:10;42.97;;;17.37;;
20846;SDS011;10584;50.854;12.902;2023-02-28T23:20:32;45.10;;;16.23;;
20846;SDS011;10584;50.854;12.902;2023-02-28T23:25:54;44.63;;;16.97;;
20846;SDS011;10584;50.854;12.902;2023-02-28T23:31:15;45.60;;;17.27;;
20846;SDS011;10584;50.854;12.902;2023-02-28T23:36:38;50.40;;;18.20;;
20846;SDS011;10584;50.854;12.902;2023-02-28T23:42:05;44.47;;;16.30;;
20846;SDS011;10584;50.854;12.902;2023-02-28T23:47:27;52.23;;;17.90;;
20846;SDS011;10584;50.854;12.902;2023-02-28T23:52:49;50.80;;;16.90;;
20846;SDS011;10584;50.854;12.902;2023-02-28T23:58:12;44.80;;;16.80;;
